Time;durP1;ratioP1;P1;durP2;ratioP2;P2;SDS_P1;SDS_P2;PMS_P1;PMS_P2;Temp;Humidity;BMP_temperature;BMP_pressure;BME280_temperature;BME280_humidity;BME280_pressure;Samples;Min_cycle;Max_cycle;Signal;HPM_P1;HPM_P2
2022/06/03 12:50:23;;;;;;;4.00;1.70;;;;;;;;;;7299955;19;20019;-75
2022/06/03 19:46:10;;;;;;;9.60;4.88;;;;;;;;;;7310350;19;20018;-75
2022/06/03 19:48:42;;;;;;;8.13;4.38;;;;;;;;;;7339461;19;20288;-75
2022/06/03 19:51:11;;;;;;;6.43;3.83;;;;;;;;;;7372542;19;20018;-75
2022/06/03 19:53:37;;;;;;;7.22;4.05;;;;;;;;;;7359724;19;20068;-75
2022/06/03 19:56:09;;;;;;;6.57;3.92;;;;;;;;;;7375280;19;20014;-75
2022/06/03 19:58:38;;;;;;;7.00;3.55;;;;;;;;;;7372289;19;20043;-75
2022/06/03 20:01:04;;;;;;;6.32;3.83;;;;;;;;;;7372069;19;19994;-76
2022/06/03 20:03:49;;;;;;;9.00;3.90;;;;;;;;;;7372125;19;20028;-75
2022/06/03 20:06:18;;;;;;;8.45;4.40;;;;;;;;;;7369082;19;20017;-75
2022/06/03 20:08:43;;;;;;;5.82;3.65;;;;;;;;;;7373390;19;20348;-75
2022/06/03 20:13:22;;;;;;;8.48;4.50;;;;;;;;;;7377630;19;20026;-75
2022/06/03 20:13:57;;;;;;;7.70;5.40;;;;;;;;;;7373204;19;20015;-75
2022/06/03 20:16:22;;;;;;;9.35;5.50;;;;;;;;;;7372948;19;20019;-75
2022/06/03 20:18:53;;;;;;;7.75;4.45;;;;;;;;;;7375059;19;20636;-75
2022/06/03 20:21:27;;;;;;;9.40;3.92;;;;;;;;;;7364977;19;20118;-75
2022/06/03 20:23:59;;;;;;;8.60;4.65;;;;;;;;;;7368630;19;20022;-74
2022/06/03 20:26:43;;;;;;;7.90;4.40;;;;;;;;;;7372977;19;20539;-75
2022/06/03 20:29:26;;;;;;;8.27;4.65;;;;;;;;;;7373816;19;20011;-75
2022/06/03 20:32:01;;;;;;;8.52;5.72;;;;;;;;;;7374455;19;20014;-74
2022/06/03 20:34:41;;;;;;;8.88;5.35;;;;;;;;;;7373588;19;20002;-75
2022/06/03 20:37:21;;;;;;;12.57;5.60;;;;;;;;;;7373603;19;20118;-75
2022/06/03 20:39:49;;;;;;;10.00;5.85;;;;;;;;;;7374462;19;20010;-76
2022/06/03 20:42:17;;;;;;;8.30;5.40;;;;;;;;;;7373540;19;20334;-75
2022/06/03 20:45:01;;;;;;;9.02;5.07;;;;;;;;;;7369148;19;20102;-75
2022/06/03 20:47:29;;;;;;;9.73;4.95;;;;;;;;;;7376179;19;20478;-75
2022/06/03 20:49:57;;;;;;;11.43;4.75;;;;;;;;;;7376326;19;20006;-75
2022/06/03 20:52:48;;;;;;;10.20;4.68;;;;;;;;;;7370873;19;20388;-75
2022/06/03 20:55:15;;;;;;;11.55;5.10;;;;;;;;;;7373567;19;20520;-75
2022/06/03 20:57:41;;;;;;;10.30;4.63;;;;;;;;;;7375881;19;20486;-75
2022/06/03 21:00:07;;;;;;;8.25;4.90;;;;;;;;;;7364899;19;20474;-75
2022/06/03 21:02:32;;;;;;;8.80;4.95;;;;;;;;;;7358574;19;20029;-76
2022/06/03 21:13:16;;;;;;;7.25;4.43;;;;;;;;;;7372511;19;20394;-75
2022/06/03 21:15:41;;;;;;;10.13;5.40;;;;;;;;;;7372301;19;20010;-75
2022/06/03 21:18:06;;;;;;;11.57;5.05;;;;;;;;;;7373293;19;20010;-75
2022/06/03 21:20:55;;;;;;;12.73;4.90;;;;;;;;;;7374552;19;20427;-74
2022/06/03 21:23:21;;;;;;;11.23;5.32;;;;;;;;;;7370612;19;20255;-75
2022/06/03 21:25:46;;;;;;;8.07;4.97;;;;;;;;;;7377842;19;20454;-75
2022/06/03 21:28:11;;;;;;;9.13;4.63;;;;;;;;;;7378268;19;20224;-75
2022/06/03 21:30:40;;;;;;;7.95;4.55;;;;;;;;;;7373848;19;20019;-76
2022/06/03 21:33:13;;;;;;;6.65;4.10;;;;;;;;;;7371019;19;20007;-74
2022/06/03 21:35:41;;;;;;;7.00;4.32;;;;;;;;;;7374644;19;20010;-75
2022/06/03 21:38:13;;;;;;;7.95;4.30;;;;;;;;;;7370570;19;20022;-75
2022/06/03 21:40:44;;;;;;;8.30;4.40;;;;;;;;;;7376952;19;20304;-75
2022/06/03 21:43:16;;;;;;;6.45;3.42;;;;;;;;;;7378732;19;20078;-74
2022/06/03 21:45:59;;;;;;;5.82;3.60;;;;;;;;;;7366203;19;20006;-74
2022/06/03 21:48:27;;;;;;;6.45;3.80;;;;;;;;;;7363881;19;20011;-74
2022/06/03 21:50:57;;;;;;;9.88;3.97;;;;;;;;;;7368056;19;20058;-74
2022/06/03 21:53:22;;;;;;;6.47;3.63;;;;;;;;;;7364905;19;20403;-75
2022/06/03 21:55:47;;;;;;;8.15;3.70;;;;;;;;;;7371695;19;20390;-74
2022/06/03 21:58:31;;;;;;;8.63;3.83;;;;;;;;;;7370162;19;20002;-74
2022/06/03 22:00:59;;;;;;;8.10;3.37;;;;;;;;;;7366114;19;20339;-76
2022/06/03 22:03:25;;;;;;;6.97;3.90;;;;;;;;;;7372911;19;20270;-76
2022/06/03 22:05:52;;;;;;;9.57;3.35;;;;;;;;;;7370544;19;19998;-74
2022/06/03 22:08:18;;;;;;;12.10;3.97;;;;;;;;;;7371836;19;20437;-75
2022/06/03 22:10:44;;;;;;;6.22;3.50;;;;;;;;;;7374291;19;20027;-75
2022/06/03 22:13:11;;;;;;;7.50;3.40;;;;;;;;;;7372148;19;20456;-75
2022/06/03 22:15:37;;;;;;;10.13;3.55;;;;;;;;;;7376819;19;20017;-75
2022/06/03 22:18:04;;;;;;;6.78;3.58;;;;;;;;;;7367931;19;20846;-75
2022/06/03 22:20:31;;;;;;;6.95;3.42;;;;;;;;;;7378182;19;20011;-75
2022/06/03 22:22:56;;;;;;;7.50;3.90;;;;;;;;;;7374863;19;20256;-75
2022/06/03 22:25:23;;;;;;;6.07;4.10;;;;;;;;;;7376199;19;20383;-74
2022/06/03 22:28:07;;;;;;;6.80;4.22;;;;;;;;;;7379204;19;20014;-75
2022/06/03 22:30:32;;;;;;;7.38;4.28;;;;;;;;;;7371585;19;20539;-76
2022/06/03 22:33:13;;;;;;;6.85;4.13;;;;;;;;;;7382872;19;20075;-74
2022/06/03 22:35:47;;;;;;;7.63;4.18;;;;;;;;;;7376612;19;20928;-75
2022/06/03 22:41:17;;;;;;;9.45;4.53;;;;;;;;;;7376880;19;20101;-76
2022/06/03 22:43:53;;;;;;;6.43;3.90;;;;;;;;;;7379082;19;20301;-76
2022/06/03 22:46:19;;;;;;;7.57;3.88;;;;;;;;;;7377954;19;19998;-75
2022/06/03 22:48:44;;;;;;;9.10;3.92;;;;;;;;;;7376100;19;20406;-75
2022/06/03 22:51:09;;;;;;;11.57;4.07;;;;;;;;;;7378694;19;20014;-77
2022/06/03 22:53:34;;;;;;;7.37;3.90;;;;;;;;;;7376559;19;20006;-76
2022/06/03 22:56:00;;;;;;;9.32;4.47;;;;;;;;;;7377306;19;20014;-75
2022/06/03 22:58:26;;;;;;;8.50;4.10;;;;;;;;;;7382906;19;20450;-76
2022/06/03 23:00:51;;;;;;;9.02;4.80;;;;;;;;;;7373039;19;20974;-74
2022/06/03 23:03:16;;;;;;;6.47;4.10;;;;;;;;;;7377649;19;20643;-75
2022/06/03 23:05:42;;;;;;;8.23;4.03;;;;;;;;;;7374208;19;20270;-74
2022/06/03 23:08:08;;;;;;;7.85;3.70;;;;;;;;;;7379691;19;20308;-75
2022/06/03 23:10:33;;;;;;;7.47;4.07;;;;;;;;;;7380492;19;20612;-75
2022/06/03 23:12:58;;;;;;;8.67;4.30;;;;;;;;;;7380275;19;20252;-75
2022/06/03 23:15:23;;;;;;;7.57;3.73;;;;;;;;;;7375437;19;20003;-75
2022/06/03 23:17:48;;;;;;;7.43;3.80;;;;;;;;;;7377999;19;20224;-75
2022/06/03 23:20:34;;;;;;;6.30;4.05;;;;;;;;;;7377303;19;20314;-76
2022/06/03 23:23:00;;;;;;;8.45;4.10;;;;;;;;;;7372609;19;20018;-75
2022/06/03 23:25:25;;;;;;;9.88;5.13;;;;;;;;;;7373636;19;20588;-75
2022/06/03 23:27:50;;;;;;;14.13;4.53;;;;;;;;;;7377934;19;20010;-76
2022/06/03 23:30:16;;;;;;;11.73;5.00;;;;;;;;;;7376622;19;20010;-74
2022/06/03 23:32:41;;;;;;;8.33;4.90;;;;;;;;;;7378425;19;20006;-75
2022/06/03 23:35:06;;;;;;;8.83;4.70;;;;;;;;;;7374245;19;20864;-75
2022/06/03 23:37:32;;;;;;;7.95;5.25;;;;;;;;;;7376867;19;20302;-75
2022/06/03 23:39:57;;;;;;;9.93;5.50;;;;;;;;;;7382078;19;20003;-75
2022/06/03 23:45:26;;;;;;;7.70;5.30;;;;;;;;;;7374979;19;20427;-76
2022/06/03 23:47:55;;;;;;;6.85;4.63;;;;;;;;;;7379803;19;20094;-74
2022/06/03 23:50:20;;;;;;;8.27;4.78;;;;;;;;;;7382109;19;20398;-75
2022/06/03 23:52:46;;;;;;;8.00;4.93;;;;;;;;;;7378563;19;20474;-75
2022/06/03 23:55:11;;;;;;;8.18;5.35;;;;;;;;;;7382106;19;19994;-75
2022/06/03 23:57:39;;;;;;;8.07;4.93;;;;;;;;;;7383051;19;20014;-75
